createdAt,value
2022-12-19T00:01:03.851Z,51.38
2022-12-19T00:03:30.569Z,47.10
2022-12-19T00:06:01.476Z,42.58
2022-12-19T00:08:28.353Z,46.35
2022-12-19T00:10:56.082Z,44.67
2022-12-19T00:13:22.915Z,45.10
2022-12-19T00:15:49.552Z,44.65
2022-12-19T00:18:17.560Z,43.63
2022-12-19T00:20:44.221Z,48.20
2022-12-19T00:23:11.342Z,45.92
2022-12-19T00:25:38.754Z,46.55
2022-12-19T00:28:06.726Z,50.85
2022-12-19T00:30:33.291Z,44.72
2022-12-19T00:33:00.304Z,40.65
2022-12-19T00:35:28.314Z,42.00
2022-12-19T00:37:54.922Z,45.40
2022-12-19T00:40:22.169Z,40.33
2022-12-19T00:42:53.630Z,36.47
2022-12-19T00:45:20.656Z,46.38
2022-12-19T00:47:47.332Z,41.28
2022-12-19T00:50:14.020Z,45.58
2022-12-19T00:52:42.000Z,37.63
2022-12-19T00:55:16.391Z,41.55
2022-12-19T00:57:45.799Z,34.83
2022-12-19T01:00:13.818Z,40.63
2022-12-19T01:02:40.578Z,34.70
2022-12-19T01:05:08.199Z,38.08
2022-12-19T01:07:35.543Z,40.58
2022-12-19T01:10:04.770Z,35.55
2022-12-19T01:12:31.376Z,40.40
2022-12-19T01:15:04.699Z,38.47
2022-12-19T01:17:31.993Z,42.63
2022-12-19T01:19:58.557Z,37.72
2022-12-19T01:22:25.169Z,35.72
2022-12-19T01:24:51.770Z,32.92
2022-12-19T01:27:19.802Z,37.70
2022-12-19T01:29:52.870Z,37.42
2022-12-19T01:32:20.286Z,33.97
2022-12-19T01:34:46.942Z,37.70
2022-12-19T01:37:13.498Z,35.28
2022-12-19T01:39:40.246Z,35.78
2022-12-19T01:42:14.349Z,35.67
2022-12-19T01:45:03.620Z,35.33
2022-12-19T01:47:31.248Z,35.63
2022-12-19T01:49:57.934Z,42.03
2022-12-19T01:52:25.096Z,39.25
2022-12-19T01:54:51.753Z,30.88
2022-12-19T01:57:19.826Z,38.17
2022-12-19T01:59:52.025Z,36.60
2022-12-19T02:02:24.519Z,39.53
2022-12-19T02:04:51.283Z,35.00
2022-12-19T02:07:19.507Z,38.47
2022-12-19T02:09:50.315Z,31.15
2022-12-19T02:12:28.646Z,28.75
2022-12-19T02:15:02.793Z,30.40
2022-12-19T02:17:38.641Z,30.20
2022-12-19T02:20:34.360Z,36.80
2022-12-19T02:23:24.134Z,29.35
2022-12-19T02:26:07.918Z,34.13
2022-12-19T02:28:59.381Z,35.30
2022-12-19T02:31:30.906Z,33.92
2022-12-19T02:34:08.073Z,31.75
2022-12-19T02:36:40.419Z,39.58
2022-12-19T02:39:14.963Z,35.17
2022-12-19T02:41:47.645Z,31.40
2022-12-19T02:44:18.358Z,31.30
2022-12-19T02:46:47.984Z,30.67
2022-12-19T02:49:19.648Z,32.45
2022-12-19T02:51:54.330Z,35.97
2022-12-19T02:54:21.386Z,33.47
2022-12-19T02:56:52.794Z,35.10
2022-12-19T02:59:39.608Z,30.73
2022-12-19T03:02:19.707Z,33.80
2022-12-19T03:05:01.497Z,31.75
2022-12-19T03:07:31.663Z,36.65
2022-12-19T03:10:05.427Z,38.50
2022-12-19T03:12:37.791Z,37.15
2022-12-19T03:15:06.354Z,33.73
2022-12-19T03:17:37.692Z,33.30
2022-12-19T03:20:09.577Z,30.90
2022-12-19T03:22:36.201Z,37.08
2022-12-19T03:25:03.373Z,30.02
2022-12-19T03:27:35.583Z,35.33
2022-12-19T03:30:05.766Z,35.70
2022-12-19T03:32:34.597Z,35.78
2022-12-19T03:35:05.541Z,31.88
2022-12-19T03:37:35.239Z,34.03
2022-12-19T03:40:10.140Z,33.10
2022-12-19T03:42:40.003Z,35.42
2022-12-19T03:45:10.111Z,38.85
2022-12-19T03:47:41.780Z,34.25
2022-12-19T03:50:11.187Z,40.97
2022-12-19T03:52:45.597Z,36.38
2022-12-19T03:55:16.850Z,38.55
2022-12-19T03:57:49.963Z,36.13
2022-12-19T04:00:18.675Z,35.17
2022-12-19T04:02:50.796Z,36.05
2022-12-19T04:05:22.647Z,36.42
2022-12-19T04:07:51.544Z,44.78
2022-12-19T04:10:20.978Z,36.47
2022-12-19T04:12:52.254Z,35.38
2022-12-19T04:15:23.613Z,40.20
2022-12-19T04:17:55.774Z,41.97
2022-12-19T04:20:26.155Z,36.33
2022-12-19T04:22:58.610Z,35.80
2022-12-19T04:25:29.879Z,37.90
2022-12-19T04:28:02.155Z,36.00
2022-12-19T04:30:28.835Z,35.45
2022-12-19T04:32:58.592Z,37.95
2022-12-19T04:35:26.595Z,40.63
2022-12-19T04:37:53.251Z,36.25
2022-12-19T04:40:19.920Z,46.20
2022-12-19T04:42:46.517Z,38.72
2022-12-19T04:45:13.286Z,40.05
2022-12-19T04:47:39.997Z,42.08
2022-12-19T04:50:06.940Z,37.70
2022-12-19T04:52:34.941Z,42.97
2022-12-19T04:55:01.680Z,40.88
2022-12-19T04:57:29.187Z,38.67
2022-12-19T04:59:56.011Z,43.55
2022-12-19T05:02:22.776Z,44.63
2022-12-19T05:04:49.863Z,42.45
2022-12-19T05:07:16.659Z,38.50
2022-12-19T05:09:44.766Z,40.15
2022-12-19T05:12:11.506Z,37.88
2022-12-19T05:14:38.099Z,40.38
2022-12-19T05:17:04.740Z,40.28
2022-12-19T05:19:31.383Z,43.05
2022-12-19T05:21:58.259Z,45.92
2022-12-19T05:24:24.878Z,41.63
2022-12-19T05:26:52.869Z,43.60
2022-12-19T05:29:19.525Z,44.42
2022-12-19T05:31:46.188Z,42.80
2022-12-19T05:34:12.859Z,40.15
2022-12-19T05:36:39.431Z,43.88
2022-12-19T05:39:06.100Z,36.90
2022-12-19T05:41:32.730Z,49.28
2022-12-19T05:44:00.743Z,46.17
2022-12-19T05:46:27.479Z,42.17
2022-12-19T05:48:54.390Z,39.70
2022-12-19T05:51:21.569Z,39.58
2022-12-19T05:53:48.176Z,46.40
2022-12-19T05:56:17.038Z,43.13
2022-12-19T05:58:44.263Z,41.60
2022-12-19T06:01:14.474Z,39.35
2022-12-19T06:03:41.595Z,44.38
2022-12-19T06:06:12.850Z,40.42
2022-12-19T06:08:39.471Z,46.80
2022-12-19T06:11:07.726Z,43.53
2022-12-19T06:13:35.669Z,41.80
2022-12-19T06:16:05.067Z,41.45
2022-12-19T06:18:33.582Z,39.95
2022-12-19T06:21:01.594Z,43.05
2022-12-19T06:23:29.613Z,42.63
2022-12-19T06:25:56.967Z,42.75
2022-12-19T06:28:23.709Z,45.40
2022-12-19T06:30:50.443Z,36.47
2022-12-19T06:33:17.037Z,37.40
2022-12-19T06:35:44.958Z,41.30
2022-12-19T06:38:11.653Z,43.55
2022-12-19T06:40:42.099Z,38.47
2022-12-19T06:43:08.802Z,40.67
2022-12-19T06:45:35.462Z,39.83
2022-12-19T06:48:02.104Z,39.00
2022-12-19T06:50:28.837Z,38.38
2022-12-19T06:52:56.941Z,41.47
2022-12-19T06:55:23.751Z,36.78
2022-12-19T06:57:50.352Z,45.28
2022-12-19T07:00:17.615Z,43.65
2022-12-19T07:02:48.960Z,35.20
2022-12-19T07:05:15.787Z,40.28
2022-12-19T07:07:42.415Z,38.08
2022-12-19T07:10:10.983Z,47.97
2022-12-19T07:12:37.602Z,35.75
2022-12-19T07:15:05.010Z,36.65
2022-12-19T07:17:31.687Z,41.25
2022-12-19T07:19:58.875Z,42.58
2022-12-19T07:22:31.343Z,38.92
2022-12-19T07:24:58.874Z,40.37
2022-12-19T07:27:33.997Z,38.67
2022-12-19T07:30:02.690Z,38.33
2022-12-19T07:32:29.325Z,44.38
2022-12-19T07:34:55.984Z,43.17
2022-12-19T07:37:22.604Z,42.10
2022-12-19T07:39:49.285Z,36.63
2022-12-19T07:42:16.009Z,36.42
2022-12-19T07:44:44.057Z,40.33
2022-12-19T07:47:10.764Z,42.55
2022-12-19T07:49:37.524Z,43.22
2022-12-19T07:52:04.115Z,43.05
2022-12-19T07:54:30.742Z,42.20
2022-12-19T07:56:57.353Z,40.35
2022-12-19T07:59:29.635Z,41.08
2022-12-19T08:01:59.794Z,41.90
2022-12-19T08:04:26.574Z,40.33
2022-12-19T08:06:53.224Z,41.45
2022-12-19T08:09:19.870Z,37.30
2022-12-19T08:11:46.427Z,41.53
2022-12-19T08:14:13.194Z,39.17
2022-12-19T08:17:03.209Z,35.75
2022-12-19T08:19:27.967Z,41.10
2022-12-19T08:21:54.692Z,36.20
2022-12-19T08:24:21.372Z,43.33
2022-12-19T08:26:48.070Z,34.45
2022-12-19T08:29:14.809Z,32.78
2022-12-19T08:31:41.462Z,30.45
2022-12-19T08:34:08.106Z,39.88
2022-12-19T08:36:36.162Z,34.53
2022-12-19T08:39:02.866Z,34.00
2022-12-19T08:41:29.524Z,33.88
2022-12-19T08:43:56.963Z,35.60
2022-12-19T08:46:23.649Z,29.95
2022-12-19T08:48:51.289Z,38.55
2022-12-19T08:51:18.377Z,32.67
2022-12-19T08:53:46.826Z,33.97
2022-12-19T08:56:15.386Z,36.45
2022-12-19T08:58:42.453Z,35.40
2022-12-19T09:01:12.066Z,41.00
2022-12-19T09:03:50.097Z,33.40
2022-12-19T09:06:25.873Z,37.63
2022-12-19T09:08:53.918Z,33.47
2022-12-19T09:11:27.032Z,30.60
2022-12-19T09:13:56.687Z,31.02
2022-12-19T09:16:24.936Z,33.08
2022-12-19T09:18:54.139Z,29.90
2022-12-19T09:21:22.721Z,33.47
2022-12-19T09:23:50.605Z,36.45
2022-12-19T09:26:20.158Z,31.27
2022-12-19T09:28:47.725Z,30.77
2022-12-19T09:31:16.532Z,36.50
2022-12-19T09:33:44.039Z,25.65
2022-12-19T09:36:12.827Z,32.15
2022-12-19T09:38:39.482Z,33.63
2022-12-19T09:41:42.503Z,30.02
2022-12-19T09:44:21.866Z,27.52
2022-12-19T09:46:51.337Z,31.63
2022-12-19T09:49:22.008Z,33.15
2022-12-19T09:51:56.953Z,28.33
2022-12-19T09:54:28.541Z,27.27
2022-12-19T09:57:02.534Z,27.70
2022-12-19T09:59:41.489Z,24.42
2022-12-19T10:02:25.927Z,29.50
2022-12-19T10:05:15.063Z,26.13
2022-12-19T10:08:07.590Z,32.17
2022-12-19T10:12:36.447Z,27.25
2022-12-19T10:13:49.261Z,32.70
2022-12-19T10:16:25.483Z,36.22
2022-12-19T10:18:57.013Z,101.30
2022-12-19T10:22:08.048Z,28.88
2022-12-19T10:25:08.086Z,31.20
2022-12-19T10:27:59.183Z,34.95
2022-12-19T10:30:32.024Z,29.27
2022-12-19T10:33:20.237Z,29.33
2022-12-19T10:35:54.065Z,29.13
2022-12-19T10:38:28.407Z,36.53
2022-12-19T10:41:11.186Z,32.28
2022-12-19T10:43:48.870Z,32.63
2022-12-19T10:46:19.737Z,34.92
2022-12-19T10:48:50.627Z,32.80
2022-12-19T10:51:23.382Z,28.88
2022-12-19T10:53:54.332Z,33.90
2022-12-19T10:56:23.669Z,27.00
2022-12-19T10:58:53.502Z,32.45
2022-12-19T11:01:25.295Z,32.15
2022-12-19T11:04:14.179Z,35.63
2022-12-19T11:06:50.740Z,29.13
2022-12-19T11:09:26.505Z,30.52
2022-12-19T11:15:25.424Z,29.00
2022-12-19T11:18:13.239Z,33.15
2022-12-19T11:24:31.934Z,35.55
2022-12-19T11:29:31.604Z,27.95
2022-12-19T11:30:06.589Z,33.30
2022-12-19T11:30:38.646Z,31.40
2022-12-19T11:30:45.317Z,32.38
2022-12-19T11:34:25.513Z,27.10
2022-12-19T11:36:59.626Z,33.38
2022-12-19T11:39:33.655Z,33.45
2022-12-19T11:42:06.036Z,34.10
2022-12-19T11:44:38.836Z,31.10
2022-12-19T11:47:17.473Z,34.72
2022-12-19T11:49:51.210Z,34.80
2022-12-19T11:53:02.796Z,34.10
2022-12-19T11:55:22.496Z,30.80
2022-12-19T11:57:49.322Z,32.35
2022-12-19T12:00:18.906Z,32.88
2022-12-19T12:03:07.572Z,33.40
2022-12-19T12:05:43.390Z,31.85
2022-12-19T12:09:45.173Z,31.58
2022-12-19T12:17:53.234Z,34.08
2022-12-19T12:29:21.164Z,32.80
2022-12-19T12:31:28.208Z,34.85
2022-12-19T12:31:31.377Z,37.85
2022-12-19T12:31:58.104Z,34.50
2022-12-19T12:32:05.781Z,38.72
2022-12-19T12:35:33.433Z,39.23
2022-12-19T12:38:43.552Z,30.73
2022-12-19T12:41:23.476Z,54.50
2022-12-19T12:44:07.019Z,32.88
2022-12-19T12:46:39.446Z,36.00
2022-12-19T12:49:30.187Z,41.47
2022-12-19T12:51:57.892Z,41.28
2022-12-19T12:54:35.648Z,36.22
2022-12-19T12:57:02.769Z,32.95
2022-12-19T12:59:31.903Z,40.53
2022-12-19T13:02:00.816Z,41.38
2022-12-19T13:04:33.406Z,37.67
2022-12-19T13:07:34.406Z,41.45
2022-12-19T13:10:16.784Z,37.10
2022-12-19T13:12:57.440Z,40.28
2022-12-19T13:15:42.679Z,37.45
2022-12-19T13:18:33.877Z,46.35
2022-12-19T13:21:03.213Z,37.65
2022-12-19T13:23:47.443Z,39.92
2022-12-19T13:26:44.825Z,44.50
2022-12-19T13:29:27.606Z,35.17
2022-12-19T13:32:10.069Z,44.05
2022-12-19T13:34:36.912Z,36.47
2022-12-19T13:39:55.641Z,43.97
2022-12-19T13:40:30.673Z,39.15
2022-12-19T13:43:10.019Z,42.65
2022-12-19T13:45:39.906Z,50.33
2022-12-19T13:48:15.067Z,43.58
2022-12-19T13:50:41.852Z,45.38
2022-12-19T13:53:14.165Z,45.17
2022-12-19T13:55:42.222Z,48.85
2022-12-19T13:58:21.852Z,43.08
2022-12-19T14:01:00.762Z,46.92
2022-12-19T14:03:34.681Z,49.88
2022-12-19T14:06:17.313Z,47.67
2022-12-19T14:08:47.104Z,39.53
2022-12-19T14:11:40.542Z,45.72
2022-12-19T14:14:12.609Z,45.90
2022-12-19T14:16:44.644Z,45.65
2022-12-19T14:19:21.685Z,43.45
2022-12-19T14:22:10.309Z,42.75
2022-12-19T14:24:35.014Z,45.10
2022-12-19T14:28:17.207Z,40.22
2022-12-19T14:30:28.171Z,42.40
2022-12-19T14:33:39.637Z,44.80
2022-12-19T14:36:06.824Z,47.67
2022-12-19T14:39:24.644Z,56.33
2022-12-19T14:41:20.747Z,49.65
2022-12-19T14:44:00.582Z,49.13
2022-12-19T14:51:42.914Z,44.53
2022-12-19T14:54:13.809Z,50.25
2022-12-19T14:54:30.699Z,46.47
2022-12-19T14:56:16.821Z,43.38
2022-12-19T14:58:54.242Z,49.00
2022-12-19T15:01:23.548Z,47.33
2022-12-19T15:04:52.415Z,46.97
2022-12-19T15:07:09.793Z,47.97
2022-12-19T15:11:08.832Z,47.50
2022-12-19T15:13:47.263Z,47.97
2022-12-19T15:15:20.549Z,45.97
2022-12-19T15:17:49.310Z,54.40
2022-12-19T15:20:16.346Z,56.90
2022-12-19T15:22:43.002Z,52.22
2022-12-19T15:25:36.121Z,58.92
2022-12-19T15:28:00.501Z,47.13
2022-12-19T15:30:32.713Z,54.38
2022-12-19T15:32:59.277Z,48.25
2022-12-19T15:35:25.991Z,51.40
2022-12-19T15:37:52.574Z,52.28
2022-12-19T15:40:20.616Z,50.67
2022-12-19T15:42:52.176Z,46.67
2022-12-19T15:45:19.112Z,49.20
2022-12-19T15:47:48.317Z,52.85
2022-12-19T15:50:17.970Z,53.22
2022-12-19T15:52:45.178Z,56.67
2022-12-19T15:55:13.988Z,55.83
2022-12-19T15:57:44.728Z,52.55
2022-12-19T16:00:18.683Z,56.75
2022-12-19T16:05:33.150Z,60.10
2022-12-19T16:07:59.882Z,60.55
2022-12-19T16:10:26.794Z,52.13
2022-12-19T16:12:56.495Z,51.58
2022-12-19T16:15:26.451Z,52.20
2022-12-19T16:17:53.785Z,46.97
2022-12-19T16:20:23.290Z,57.20
2022-12-19T16:22:50.556Z,51.08
2022-12-19T16:25:17.365Z,56.72
2022-12-19T16:27:48.255Z,53.95
2022-12-19T16:30:21.837Z,59.55
2022-12-19T16:32:49.055Z,48.97
2022-12-19T16:35:24.000Z,53.15
2022-12-19T16:38:01.094Z,55.95
2022-12-19T16:40:27.655Z,58.88
2022-12-19T16:43:04.107Z,54.28
2022-12-19T16:45:33.871Z,55.88
2022-12-19T16:48:00.503Z,61.67
2022-12-19T16:50:29.817Z,64.18
2022-12-19T16:52:57.477Z,58.60
2022-12-19T16:55:25.313Z,62.28
2022-12-19T16:57:54.943Z,56.78
2022-12-19T17:00:22.826Z,56.78
2022-12-19T17:02:53.270Z,55.30
2022-12-19T17:05:23.410Z,60.53
2022-12-19T17:07:51.040Z,63.42
2022-12-19T17:10:24.229Z,60.60
2022-12-19T17:12:52.830Z,64.90
2022-12-19T17:15:26.674Z,55.35
2022-12-19T17:17:56.875Z,62.38
2022-12-19T17:20:26.464Z,63.88
2022-12-19T17:22:53.109Z,56.97
2022-12-19T17:25:23.156Z,60.33
2022-12-19T17:27:51.078Z,56.78
2022-12-19T17:30:18.419Z,54.85
2022-12-19T17:32:47.736Z,58.45
2022-12-19T17:35:21.241Z,62.42
2022-12-19T17:37:54.025Z,57.72
2022-12-19T17:40:22.728Z,54.25
2022-12-19T17:42:50.196Z,55.88
2022-12-19T17:45:17.330Z,50.17
2022-12-19T17:47:44.841Z,46.83
2022-12-19T17:50:21.446Z,54.55
2022-12-19T17:52:48.609Z,48.85
2022-12-19T17:55:18.538Z,59.50
2022-12-19T17:57:45.365Z,62.58
2022-12-19T18:00:13.129Z,59.25
2022-12-19T18:02:40.404Z,51.90
2022-12-19T18:05:11.316Z,57.63
2022-12-19T18:07:39.256Z,57.22
2022-12-19T18:10:14.359Z,56.58
2022-12-19T18:12:40.983Z,60.28
2022-12-19T18:15:08.119Z,55.80
2022-12-19T18:17:34.772Z,54.22
2022-12-19T18:20:01.603Z,51.00
2022-12-19T18:22:28.168Z,58.80
2022-12-19T18:24:56.257Z,56.42
2022-12-19T18:27:22.875Z,55.42
2022-12-19T18:29:49.528Z,54.80
2022-12-19T18:32:18.786Z,54.63
2022-12-19T18:34:45.447Z,58.63
2022-12-19T18:37:14.637Z,52.67
2022-12-19T18:39:41.401Z,53.55
2022-12-19T18:42:20.426Z,58.95
2022-12-19T18:44:47.303Z,53.00
2022-12-19T18:47:20.528Z,53.97
2022-12-19T18:49:47.859Z,54.05
2022-12-19T18:52:14.473Z,55.15
2022-12-19T18:54:41.113Z,55.00
2022-12-19T18:57:07.744Z,60.50
2022-12-19T18:59:35.714Z,53.47
2022-12-19T19:02:02.506Z,52.67
2022-12-19T19:04:29.439Z,58.95
2022-12-19T19:06:56.064Z,64.30
2022-12-19T19:09:22.703Z,54.38
2022-12-19T19:11:49.447Z,55.38
2022-12-19T19:14:16.128Z,64.05
2022-12-19T19:16:44.235Z,53.28
2022-12-19T19:19:14.563Z,54.75
2022-12-19T19:21:41.212Z,58.22
2022-12-19T19:24:10.763Z,65.03
2022-12-19T19:26:37.688Z,62.08
2022-12-19T19:29:05.101Z,49.50
2022-12-19T19:31:35.330Z,55.08
2022-12-19T19:34:09.306Z,50.78
2022-12-19T19:36:37.872Z,52.15
2022-12-19T19:39:05.238Z,49.97
2022-12-19T19:41:31.864Z,50.78
2022-12-19T19:43:59.293Z,59.67
2022-12-19T19:46:25.956Z,56.00
2022-12-19T19:48:53.073Z,60.90
2022-12-19T19:51:21.287Z,52.47
2022-12-19T19:53:47.969Z,55.60
2022-12-19T19:56:14.627Z,47.80
2022-12-19T19:58:41.364Z,56.35
2022-12-19T20:01:09.019Z,48.55
2022-12-19T20:03:35.884Z,54.28
2022-12-19T20:06:03.209Z,58.40
2022-12-19T20:08:38.809Z,54.20
2022-12-19T20:11:06.333Z,47.58
2022-12-19T20:13:33.138Z,46.88
2022-12-19T20:16:03.931Z,55.47
2022-12-19T20:18:30.723Z,55.60
2022-12-19T20:20:57.647Z,54.33
2022-12-19T20:23:24.803Z,49.47
2022-12-19T20:25:52.850Z,45.95
2022-12-19T20:28:19.882Z,47.10
2022-12-19T20:30:46.585Z,48.65
2022-12-19T20:33:13.308Z,50.08
2022-12-19T20:35:39.965Z,50.67
2022-12-19T20:38:06.680Z,48.60
2022-12-19T20:40:33.344Z,49.95
2022-12-19T20:43:01.394Z,49.97
2022-12-19T20:45:28.436Z,46.25
2022-12-19T20:47:55.026Z,44.15
2022-12-19T20:50:21.970Z,49.92
2022-12-19T20:52:48.645Z,49.30
2022-12-19T20:55:15.826Z,47.35
2022-12-19T20:57:42.440Z,46.75
2022-12-19T21:00:12.070Z,51.25
2022-12-19T21:03:16.815Z,52.03
2022-12-19T21:05:25.384Z,45.22
2022-12-19T21:07:52.070Z,42.10
2022-12-19T21:10:18.682Z,45.17
2022-12-19T21:12:47.889Z,46.85
2022-12-19T21:15:16.397Z,49.08
2022-12-19T21:17:43.068Z,43.78
2022-12-19T21:20:11.008Z,45.17
2022-12-19T21:22:37.649Z,54.45
2022-12-19T21:25:04.734Z,44.50
2022-12-19T21:27:31.565Z,38.13
2022-12-19T21:29:58.847Z,40.47
2022-12-19T21:32:27.393Z,43.13
2022-12-19T21:34:54.096Z,43.90
2022-12-19T21:37:20.683Z,41.85
2022-12-19T21:39:47.437Z,43.97
2022-12-19T21:42:14.086Z,42.17
2022-12-19T21:44:40.700Z,45.63
2022-12-19T21:47:07.382Z,45.85
2022-12-19T21:49:35.556Z,40.92
2022-12-19T21:52:02.212Z,39.70
2022-12-19T21:54:28.867Z,42.63
2022-12-19T21:56:55.528Z,45.38
2022-12-19T21:59:22.115Z,45.25
2022-12-19T22:01:49.131Z,41.00
2022-12-19T22:04:17.851Z,49.10
2022-12-19T22:06:46.412Z,38.95
2022-12-19T22:09:15.780Z,42.55
2022-12-19T22:11:43.190Z,46.38
2022-12-19T22:14:11.535Z,43.85
2022-12-19T22:16:38.493Z,37.70
2022-12-19T22:19:05.990Z,37.38
2022-12-19T22:21:33.736Z,41.97
2022-12-19T22:24:03.172Z,39.60
2022-12-19T22:26:31.443Z,39.50
2022-12-19T22:28:58.711Z,42.90
2022-12-19T22:31:27.769Z,35.70
2022-12-19T22:33:55.993Z,44.83
2022-12-19T22:36:27.953Z,33.45
2022-12-19T22:38:57.209Z,42.03
2022-12-19T22:41:25.642Z,38.25
2022-12-19T22:43:53.076Z,38.30
2022-12-19T22:46:21.817Z,41.05
2022-12-19T22:48:49.532Z,43.72
2022-12-19T22:51:18.276Z,40.53
2022-12-19T22:53:45.862Z,40.13
2022-12-19T22:56:14.719Z,37.05
2022-12-19T22:58:44.334Z,35.35
2022-12-19T23:01:13.901Z,32.78
2022-12-19T23:03:41.361Z,33.85
2022-12-19T23:06:08.448Z,33.83
2022-12-19T23:08:35.491Z,33.05
2022-12-19T23:11:02.244Z,35.78
2022-12-19T23:13:28.873Z,38.00
2022-12-19T23:15:57.845Z,30.80
2022-12-19T23:18:25.743Z,35.40
2022-12-19T23:21:02.295Z,31.90
2022-12-19T23:23:29.415Z,36.38
2022-12-19T23:25:56.216Z,31.63
2022-12-19T23:28:22.881Z,35.10
2022-12-19T23:30:49.453Z,31.77
2022-12-19T23:33:17.512Z,35.40
2022-12-19T23:35:44.137Z,31.70
2022-12-19T23:38:10.998Z,33.85
2022-12-19T23:40:37.666Z,35.80
2022-12-19T23:43:04.345Z,30.60
2022-12-19T23:45:31.260Z,32.55
2022-12-19T23:47:57.924Z,33.53
2022-12-19T23:50:25.958Z,29.92
2022-12-19T23:52:52.577Z,39.40
2022-12-19T23:55:19.180Z,27.33
2022-12-19T23:57:45.835Z,33.65
